createdAt,value
2023-03-04T00:00:45.779Z,17.25
2023-03-04T00:03:15.475Z,21.80
2023-03-04T00:05:43.104Z,20.38
2023-03-04T00:08:10.616Z,17.88
2023-03-04T00:10:38.069Z,17.45
2023-03-04T00:13:05.479Z,17.13
2023-03-04T00:15:32.830Z,17.10
2023-03-04T00:18:00.213Z,20.50
2023-03-04T00:20:27.634Z,17.73
2023-03-04T00:22:54.969Z,16.80
2023-03-04T00:25:22.393Z,18.70
2023-03-04T00:27:49.750Z,22.75
2023-03-04T00:30:17.369Z,15.57
2023-03-04T00:32:44.807Z,19.67
2023-03-04T00:35:12.247Z,17.65
2023-03-04T00:37:39.623Z,21.25
2023-03-04T00:40:07.546Z,16.52
2023-03-04T00:42:35.005Z,17.55
2023-03-04T00:45:02.626Z,19.60
2023-03-04T00:47:30.681Z,19.17
2023-03-04T00:49:58.146Z,22.75
2023-03-04T00:52:25.530Z,18.88
2023-03-04T00:54:52.906Z,17.25
2023-03-04T00:57:20.347Z,15.25
2023-03-04T00:59:47.916Z,19.42
2023-03-04T01:02:15.297Z,22.52
2023-03-04T01:04:43.074Z,18.63
2023-03-04T01:07:10.600Z,16.83
2023-03-04T01:09:38.061Z,24.88
2023-03-04T01:12:05.653Z,19.52
2023-03-04T01:14:33.061Z,13.65
2023-03-04T01:17:00.882Z,19.75
2023-03-04T01:19:28.392Z,16.75
2023-03-04T01:21:55.845Z,18.67
2023-03-04T01:24:23.221Z,18.02
2023-03-04T01:26:50.592Z,15.77
2023-03-04T01:29:18.025Z,19.35
2023-03-04T01:31:45.377Z,20.50
2023-03-04T01:34:13.578Z,18.67
2023-03-04T01:36:40.988Z,18.45
2023-03-04T01:39:08.361Z,19.02
2023-03-04T01:41:35.994Z,22.92
2023-03-04T01:44:03.738Z,22.40
2023-03-04T01:46:31.921Z,20.30
2023-03-04T01:49:00.048Z,23.85
2023-03-04T01:51:27.759Z,24.27
2023-03-04T01:53:57.116Z,27.77
2023-03-04T01:56:29.884Z,25.30
2023-03-04T01:59:23.309Z,33.30
2023-03-04T02:01:57.579Z,27.33
2023-03-04T02:04:31.158Z,31.70
2023-03-04T02:07:00.802Z,27.88
2023-03-04T02:09:30.050Z,25.65
2023-03-04T02:11:57.973Z,28.23
2023-03-04T02:14:26.026Z,26.50
2023-03-04T02:16:53.697Z,25.88
2023-03-04T02:19:49.201Z,26.92
2023-03-04T02:22:16.630Z,25.85
2023-03-04T02:24:49.018Z,26.08
2023-03-04T02:27:16.724Z,28.10
2023-03-04T02:29:44.183Z,26.08
2023-03-04T02:32:14.244Z,30.52
2023-03-04T02:34:47.832Z,26.48
2023-03-04T02:37:16.040Z,26.65
2023-03-04T02:39:46.769Z,28.85
2023-03-04T02:42:14.722Z,32.03
2023-03-04T02:44:46.499Z,28.60
2023-03-04T02:47:20.319Z,33.43
2023-03-04T02:49:49.274Z,26.83
2023-03-04T02:52:26.693Z,25.02
2023-03-04T02:54:54.161Z,30.65
2023-03-04T02:57:22.139Z,28.25
2023-03-04T02:59:53.664Z,28.30
2023-03-04T03:02:24.392Z,31.70
2023-03-04T03:04:52.061Z,34.25
2023-03-04T03:07:21.061Z,29.30
2023-03-04T03:09:49.237Z,30.33
2023-03-04T03:12:18.423Z,29.98
2023-03-04T03:14:45.861Z,36.50
2023-03-04T03:17:15.908Z,31.13
2023-03-04T03:19:43.432Z,33.83
2023-03-04T03:22:11.422Z,29.85
2023-03-04T03:24:38.855Z,33.90
2023-03-04T03:27:06.388Z,39.45
2023-03-04T03:29:34.401Z,32.88
2023-03-04T03:32:03.498Z,32.40
2023-03-04T03:34:32.314Z,33.38
2023-03-04T03:37:02.286Z,30.52
2023-03-04T03:39:29.701Z,31.08
2023-03-04T03:41:57.209Z,36.28
2023-03-04T03:44:24.710Z,33.33
2023-03-04T03:46:52.227Z,28.33
2023-03-04T03:49:19.626Z,34.00
2023-03-04T03:51:47.158Z,33.95
2023-03-04T03:54:14.564Z,28.15
2023-03-04T03:56:41.964Z,34.00
2023-03-04T03:59:09.400Z,33.75
2023-03-04T04:01:37.313Z,38.80
2023-03-04T04:04:04.818Z,26.25
2023-03-04T04:06:32.202Z,29.58
2023-03-04T04:08:59.692Z,26.75
2023-03-04T04:11:28.040Z,33.90
2023-03-04T04:13:55.482Z,29.98
2023-03-04T04:16:23.028Z,27.52
2023-03-04T04:18:50.502Z,32.22
2023-03-04T04:21:17.992Z,32.72
2023-03-04T04:23:45.400Z,36.70
2023-03-04T04:26:12.781Z,36.38
2023-03-04T04:28:41.125Z,34.88
2023-03-04T04:31:09.619Z,34.45
2023-03-04T04:33:37.490Z,33.22
2023-03-04T04:36:05.648Z,33.88
2023-03-04T04:38:33.205Z,43.60
2023-03-04T04:41:00.884Z,31.92
2023-03-04T04:43:28.281Z,31.88
2023-03-04T04:45:57.110Z,31.85
2023-03-04T04:48:25.290Z,31.38
2023-03-04T04:50:56.500Z,41.85
2023-03-04T04:53:23.904Z,48.27
2023-03-04T04:55:51.304Z,35.47
2023-03-04T04:58:18.705Z,35.30
2023-03-04T05:00:46.121Z,38.28
2023-03-04T05:03:13.535Z,37.67
2023-03-04T05:05:41.025Z,39.72
2023-03-04T05:08:08.435Z,40.72
2023-03-04T05:10:36.932Z,44.15
2023-03-04T05:13:04.378Z,43.97
2023-03-04T05:15:31.794Z,40.35
2023-03-04T05:17:59.227Z,43.28
2023-03-04T05:20:27.195Z,42.40
2023-03-04T05:22:54.780Z,41.85
2023-03-04T05:25:22.294Z,37.28
2023-03-04T05:27:49.653Z,35.50
2023-03-04T05:30:17.208Z,45.40
2023-03-04T05:32:44.556Z,42.53
2023-03-04T05:35:11.997Z,41.95
2023-03-04T05:37:39.411Z,43.08
2023-03-04T05:40:07.455Z,40.80
2023-03-04T05:42:34.803Z,42.58
2023-03-04T05:45:02.169Z,41.58
2023-03-04T05:47:29.578Z,37.50
2023-03-04T05:49:58.092Z,44.92
2023-03-04T05:52:25.536Z,43.25
2023-03-04T05:54:52.863Z,44.20
2023-03-04T05:57:20.232Z,36.60
2023-03-04T05:59:47.677Z,46.65
2023-03-04T06:02:15.078Z,37.28
2023-03-04T06:04:42.464Z,41.75
2023-03-04T06:07:09.858Z,42.78
2023-03-04T06:09:37.313Z,44.00
2023-03-04T06:12:05.013Z,43.53
2023-03-04T06:14:32.436Z,44.58
2023-03-04T06:16:59.894Z,47.17
2023-03-04T06:19:27.454Z,51.42
2023-03-04T06:21:54.985Z,50.25
2023-03-04T06:24:22.568Z,43.63
2023-03-04T06:26:49.972Z,37.80
2023-03-04T06:29:17.616Z,42.75
2023-03-04T06:31:45.084Z,43.20
2023-03-04T06:34:12.544Z,39.65
2023-03-04T06:36:39.993Z,31.52
2023-03-04T06:39:08.101Z,33.85
2023-03-04T06:41:35.736Z,36.03
2023-03-04T06:44:03.826Z,36.95
2023-03-04T06:46:33.266Z,37.30
2023-03-04T06:49:00.938Z,56.60
2023-03-04T06:51:28.561Z,44.72
2023-03-04T06:53:56.134Z,38.45
2023-03-04T06:56:23.574Z,33.85
2023-03-04T06:58:51.690Z,36.08
2023-03-04T07:01:24.395Z,34.88
2023-03-04T07:03:53.193Z,40.47
2023-03-04T07:06:24.088Z,29.02
2023-03-04T07:08:52.236Z,32.15
2023-03-04T07:11:20.670Z,27.85
2023-03-04T07:13:48.690Z,33.00
2023-03-04T07:16:19.170Z,31.42
2023-03-04T07:18:46.746Z,29.38
2023-03-04T07:21:15.964Z,27.65
2023-03-04T07:23:44.294Z,30.08
2023-03-04T07:26:12.183Z,29.10
2023-03-04T07:28:39.780Z,29.95
2023-03-04T07:31:09.977Z,31.02
2023-03-04T07:33:37.447Z,30.77
2023-03-04T07:36:05.111Z,25.13
2023-03-04T07:38:32.583Z,30.92
2023-03-04T07:41:01.562Z,28.00
2023-03-04T07:43:29.201Z,29.40
2023-03-04T07:46:01.702Z,28.02
2023-03-04T07:48:29.278Z,30.23
2023-03-04T07:51:08.386Z,26.05
2023-03-04T07:53:37.125Z,29.38
2023-03-04T07:56:05.791Z,25.00
2023-03-04T07:58:33.250Z,28.52
2023-03-04T08:01:00.693Z,27.83
2023-03-04T08:03:29.610Z,31.35
2023-03-04T08:05:57.033Z,31.38
2023-03-04T08:08:24.483Z,33.60
2023-03-04T08:10:51.964Z,26.08
2023-03-04T08:13:19.435Z,27.50
2023-03-04T08:15:46.857Z,24.95
2023-03-04T08:18:14.302Z,22.63
2023-03-04T08:20:43.359Z,26.98
2023-03-04T08:23:11.138Z,23.85
2023-03-04T08:25:40.720Z,22.13
2023-03-04T08:28:10.042Z,27.23
2023-03-04T08:30:37.451Z,24.60
2023-03-04T08:33:04.932Z,26.92
2023-03-04T08:35:33.181Z,29.55
2023-03-04T08:38:02.405Z,27.65
2023-03-04T08:40:31.090Z,24.13
2023-03-04T08:42:58.713Z,29.42
2023-03-04T08:45:26.120Z,29.15
2023-03-04T08:47:53.526Z,22.15
2023-03-04T08:50:22.567Z,24.75
2023-03-04T08:52:50.066Z,27.02
2023-03-04T08:55:17.515Z,22.95
2023-03-04T08:57:44.926Z,22.20
2023-03-04T09:00:13.305Z,23.88
2023-03-04T09:02:40.679Z,21.88
2023-03-04T09:05:08.705Z,22.40
2023-03-04T09:07:36.142Z,22.58
2023-03-04T09:10:04.599Z,26.33
2023-03-04T09:12:33.322Z,24.88
2023-03-04T09:15:11.126Z,24.15
2023-03-04T09:17:40.506Z,20.05
2023-03-04T09:20:10.323Z,20.77
2023-03-04T09:22:38.844Z,21.67
2023-03-04T09:25:11.037Z,24.58
2023-03-04T09:27:40.394Z,22.08
2023-03-04T09:30:08.945Z,26.80
2023-03-04T09:32:37.174Z,21.08
2023-03-04T09:35:05.728Z,24.27
2023-03-04T09:37:33.197Z,29.45
2023-03-04T09:40:00.791Z,24.35
2023-03-04T09:42:35.111Z,24.95
2023-03-04T09:45:05.528Z,24.23
2023-03-04T09:47:37.143Z,18.95
2023-03-04T09:50:08.945Z,19.70
2023-03-04T09:52:48.046Z,25.70
2023-03-04T09:55:25.706Z,21.55
2023-03-04T09:57:57.924Z,27.27
2023-03-04T10:00:33.071Z,24.05
2023-03-04T10:03:06.581Z,17.67
2023-03-04T10:05:56.570Z,21.98
2023-03-04T10:08:52.082Z,19.77
2023-03-04T10:11:27.683Z,17.63
2023-03-04T10:14:13.631Z,22.35
2023-03-04T10:17:02.722Z,19.05
2023-03-04T10:19:57.006Z,24.42
2023-03-04T10:22:34.559Z,22.80
2023-03-04T10:25:16.170Z,20.70
2023-03-04T10:27:48.846Z,22.70
2023-03-04T10:30:32.402Z,23.98
2023-03-04T10:33:00.095Z,23.90
2023-03-04T10:35:36.385Z,22.02
2023-03-04T10:38:04.598Z,24.05
2023-03-04T10:40:38.612Z,26.02
2023-03-04T10:43:08.301Z,20.55
2023-03-04T10:45:40.374Z,25.52
2023-03-04T10:48:22.814Z,23.42
2023-03-04T10:50:50.683Z,23.33
2023-03-04T10:53:41.924Z,24.20
2023-03-04T10:56:31.257Z,24.60
2023-03-04T10:59:36.552Z,27.10
2023-03-04T11:02:19.753Z,22.40
2023-03-04T11:04:53.579Z,21.55
2023-03-04T11:07:23.686Z,24.00
2023-03-04T11:09:51.346Z,22.92
2023-03-04T11:12:22.454Z,28.15
2023-03-04T11:14:52.217Z,24.05
2023-03-04T11:17:19.656Z,26.77
2023-03-04T11:20:02.356Z,27.35
2023-03-04T11:22:31.557Z,27.10
2023-03-04T11:25:05.625Z,24.10
2023-03-04T11:27:45.630Z,30.85
2023-03-04T11:30:22.788Z,26.08
2023-03-04T11:32:52.604Z,31.88
2023-03-04T11:35:29.292Z,30.80
2023-03-04T11:38:40.788Z,33.05
2023-03-04T11:41:32.137Z,33.05
2023-03-04T11:44:00.650Z,29.67
2023-03-04T11:46:50.755Z,36.97
2023-03-04T11:49:51.180Z,31.67
2023-03-04T11:52:47.839Z,33.80
2023-03-04T11:55:56.285Z,31.30
2023-03-04T11:58:29.596Z,29.85
2023-03-04T12:01:16.094Z,28.35
2023-03-04T12:03:59.462Z,36.42
2023-03-04T12:06:45.592Z,32.65
2023-03-04T12:09:41.600Z,31.85
2023-03-04T12:12:27.069Z,27.30
2023-03-04T12:15:26.161Z,30.77
2023-03-04T12:18:12.865Z,29.85
2023-03-04T12:21:10.654Z,26.83
2023-03-04T12:24:08.525Z,34.58
2023-03-04T12:26:57.581Z,29.42
2023-03-04T12:29:43.499Z,31.58
2023-03-04T12:32:23.503Z,34.53
2023-03-04T12:35:03.766Z,28.23
2023-03-04T12:37:35.636Z,31.38
2023-03-04T12:40:21.342Z,33.38
2023-03-04T12:43:00.580Z,26.02
2023-03-04T12:45:34.765Z,30.45
2023-03-04T12:48:05.283Z,29.30
2023-03-04T12:51:13.942Z,29.00
2023-03-04T12:53:51.906Z,31.30
2023-03-04T12:56:28.286Z,31.83
2023-03-04T12:58:58.136Z,31.55
2023-03-04T13:01:34.257Z,32.25
2023-03-04T13:04:29.738Z,36.30
2023-03-04T13:07:14.723Z,35.70
2023-03-04T13:09:57.344Z,33.08
2023-03-04T13:12:26.680Z,34.35
2023-03-04T13:15:10.054Z,32.35
2023-03-04T13:17:50.203Z,37.35
2023-03-04T13:20:32.604Z,32.97
2023-03-04T13:23:23.064Z,32.22
2023-03-04T13:26:27.362Z,29.27
2023-03-04T13:29:18.240Z,30.88
2023-03-04T13:32:10.339Z,30.13
2023-03-04T13:34:54.552Z,28.35
2023-03-04T13:37:32.597Z,30.52
2023-03-04T13:40:23.298Z,32.55
2023-03-04T13:42:50.932Z,33.05
2023-03-04T13:45:44.776Z,33.55
2023-03-04T13:48:30.512Z,30.50
2023-03-04T13:50:59.158Z,33.92
2023-03-04T13:53:55.513Z,36.88
2023-03-04T13:56:31.319Z,31.85
2023-03-04T13:59:31.281Z,34.22
2023-03-04T14:02:11.262Z,36.15
2023-03-04T14:04:41.019Z,31.48
2023-03-04T14:07:37.856Z,33.05
2023-03-04T14:10:23.721Z,33.72
2023-03-04T14:12:57.677Z,32.15
2023-03-04T14:15:27.714Z,30.73
2023-03-04T14:17:57.717Z,34.33
2023-03-04T14:20:34.209Z,30.63
2023-03-04T14:23:04.156Z,35.05
2023-03-04T14:25:36.543Z,30.33
2023-03-04T14:28:13.177Z,38.83
2023-03-04T14:30:51.370Z,32.80
2023-03-04T14:33:23.362Z,32.70
2023-03-04T14:35:54.002Z,30.15
2023-03-04T14:38:26.176Z,36.38
2023-03-04T14:41:05.057Z,35.10
2023-03-04T14:43:40.144Z,31.98
2023-03-04T14:46:13.215Z,33.63
2023-03-04T14:48:47.626Z,37.20
2023-03-04T14:51:47.913Z,33.45
2023-03-04T14:54:31.796Z,32.50
2023-03-04T14:57:01.550Z,32.15
2023-03-04T14:59:30.710Z,36.45
2023-03-04T15:02:31.369Z,34.75
2023-03-04T15:05:01.924Z,36.80
2023-03-04T15:07:35.737Z,33.70
2023-03-04T15:10:07.018Z,31.73
2023-03-04T15:12:37.461Z,30.98
2023-03-04T15:15:31.213Z,38.75
2023-03-04T15:18:00.573Z,34.83
2023-03-04T15:20:32.836Z,33.55
2023-03-04T15:25:30.517Z,38.13
2023-03-04T15:28:00.522Z,37.95
2023-03-04T15:30:32.799Z,37.53
2023-03-04T15:33:01.230Z,35.65
2023-03-04T15:35:31.972Z,35.63
2023-03-04T15:38:00.242Z,36.50
2023-03-04T15:40:29.765Z,37.80
2023-03-04T15:42:59.472Z,32.70
2023-03-04T15:45:38.367Z,35.95
2023-03-04T15:48:08.224Z,40.55
2023-03-04T15:50:39.721Z,33.72
2023-03-04T15:53:12.872Z,33.97
2023-03-04T15:55:40.459Z,35.22
2023-03-04T15:58:11.156Z,38.72
2023-03-04T16:00:38.606Z,36.00
2023-03-04T16:03:13.610Z,34.33
2023-03-04T16:05:41.176Z,36.67
2023-03-04T16:08:14.463Z,33.25
2023-03-04T16:10:43.902Z,35.78
2023-03-04T16:13:22.913Z,32.17
2023-03-04T16:15:51.108Z,34.08
2023-03-04T16:18:18.739Z,36.40
2023-03-04T16:20:48.814Z,35.00
2023-03-04T16:23:22.148Z,35.50
2023-03-04T16:25:52.588Z,35.15
2023-03-04T16:28:20.101Z,35.35
2023-03-04T16:30:48.358Z,36.30
2023-03-04T16:33:16.368Z,33.53
2023-03-04T16:35:45.429Z,38.45
2023-03-04T16:38:25.815Z,33.95
2023-03-04T16:40:54.484Z,44.53
2023-03-04T16:43:23.012Z,38.85
2023-03-04T16:45:50.584Z,39.90
2023-03-04T16:48:20.295Z,42.22
2023-03-04T16:50:47.834Z,39.85
2023-03-04T16:53:26.916Z,39.53
2023-03-04T16:55:54.721Z,38.45
2023-03-04T16:58:22.369Z,39.95
2023-03-04T17:00:49.835Z,44.00
2023-03-04T17:03:17.320Z,47.47
2023-03-04T17:05:44.815Z,43.78
2023-03-04T17:08:12.223Z,40.53
2023-03-04T17:10:40.970Z,42.97
2023-03-04T17:13:08.786Z,44.85
2023-03-04T17:15:36.398Z,45.35
2023-03-04T17:18:04.036Z,41.88
2023-03-04T17:20:31.496Z,46.08
2023-03-04T17:22:58.932Z,42.25
2023-03-04T17:25:26.323Z,50.00
2023-03-04T17:27:53.757Z,45.83
2023-03-04T17:30:21.318Z,47.03
2023-03-04T17:32:48.754Z,50.13
2023-03-04T17:35:16.134Z,47.72
2023-03-04T17:37:43.602Z,52.42
2023-03-04T17:40:15.247Z,53.80
2023-03-04T17:42:43.634Z,51.85
2023-03-04T17:45:11.602Z,53.05
2023-03-04T17:47:39.357Z,49.00
2023-03-04T17:50:08.329Z,57.08
2023-03-04T17:52:35.868Z,53.47
2023-03-04T17:55:03.579Z,50.00
2023-03-04T17:57:31.008Z,48.92
2023-03-04T17:59:58.479Z,50.78
2023-03-04T18:02:25.871Z,55.30
2023-03-04T18:04:53.311Z,48.90
2023-03-04T18:07:20.683Z,46.63
2023-03-04T18:09:48.148Z,49.60
2023-03-04T18:12:15.573Z,54.53
2023-03-04T18:14:43.024Z,46.75
2023-03-04T18:17:10.415Z,58.13
2023-03-04T18:19:37.844Z,61.55
2023-03-04T18:22:05.261Z,55.42
2023-03-04T18:24:32.901Z,55.10
2023-03-04T18:27:00.538Z,58.92
2023-03-04T18:29:29.571Z,61.53
2023-03-04T18:31:57.100Z,63.78
2023-03-04T18:34:24.673Z,61.33
2023-03-04T18:36:52.665Z,61.35
2023-03-04T18:39:20.093Z,68.68
2023-03-04T18:41:47.488Z,70.28
2023-03-04T18:44:14.914Z,69.68
2023-03-04T18:46:50.500Z,69.25
2023-03-04T18:49:20.042Z,67.68
2023-03-04T18:51:47.426Z,78.65
2023-03-04T18:54:14.876Z,64.93
2023-03-04T18:56:44.906Z,69.47
2023-03-04T18:59:20.506Z,70.32
2023-03-04T19:01:50.130Z,69.68
2023-03-04T19:04:20.086Z,74.05
2023-03-04T19:06:47.600Z,80.00
2023-03-04T19:09:16.058Z,78.90
2023-03-04T19:11:44.080Z,84.82
2023-03-04T19:14:11.923Z,85.60
2023-03-04T19:16:40.182Z,83.30
2023-03-04T19:19:07.771Z,73.88
2023-03-04T19:21:38.666Z,72.75
2023-03-04T19:24:06.601Z,72.05
2023-03-04T19:26:34.279Z,69.00
2023-03-04T19:29:01.776Z,68.30
2023-03-04T19:31:30.187Z,72.15
2023-03-04T19:33:57.693Z,73.68
2023-03-04T19:36:26.491Z,73.05
2023-03-04T19:38:55.468Z,66.65
2023-03-04T19:41:23.808Z,68.38
2023-03-04T19:43:54.464Z,67.28
2023-03-04T19:46:21.964Z,79.18
2023-03-04T19:48:50.316Z,72.22
2023-03-04T19:51:20.531Z,73.50
2023-03-04T19:53:48.278Z,69.90
2023-03-04T19:56:15.765Z,73.88
2023-03-04T19:58:43.390Z,78.28
2023-03-04T20:01:40.827Z,61.35
2023-03-04T20:04:11.537Z,67.72
2023-03-04T20:06:42.372Z,67.82
2023-03-04T20:09:10.322Z,64.10
2023-03-04T20:11:50.837Z,66.82
2023-03-04T20:14:23.920Z,70.38
2023-03-04T20:16:51.389Z,66.90
2023-03-04T20:19:18.902Z,66.63
2023-03-04T20:21:46.331Z,67.50
2023-03-04T20:24:15.034Z,66.78
2023-03-04T20:26:42.626Z,71.13
2023-03-04T20:29:10.063Z,68.50
2023-03-04T20:31:39.091Z,76.22
2023-03-04T20:34:08.390Z,60.95
2023-03-04T20:36:36.142Z,71.07
2023-03-04T20:39:12.683Z,66.18
2023-03-04T20:41:49.327Z,67.03
2023-03-04T20:44:16.691Z,71.13
2023-03-04T20:46:46.358Z,65.70
2023-03-04T20:49:23.939Z,61.55
2023-03-04T20:51:55.007Z,69.35
2023-03-04T20:54:22.761Z,65.80
2023-03-04T20:56:55.123Z,65.40
2023-03-04T20:59:22.704Z,66.40
2023-03-04T21:01:50.992Z,65.82
2023-03-04T21:04:20.144Z,67.53
2023-03-04T21:06:48.388Z,66.20
2023-03-04T21:09:18.593Z,64.90
2023-03-04T21:11:46.786Z,58.80
2023-03-04T21:14:16.439Z,71.72
2023-03-04T21:16:45.166Z,62.58
2023-03-04T21:19:22.774Z,68.80
2023-03-04T21:21:51.914Z,69.85
2023-03-04T21:24:22.794Z,66.13
2023-03-04T21:26:50.444Z,66.70
2023-03-04T21:29:21.181Z,62.58
2023-03-04T21:32:24.336Z,58.13
2023-03-04T21:34:53.912Z,59.15
2023-03-04T21:37:23.719Z,68.15
2023-03-04T21:39:51.520Z,66.15
2023-03-04T21:42:19.093Z,72.97
2023-03-04T21:44:51.276Z,64.32
2023-03-04T21:47:20.847Z,71.35
2023-03-04T21:49:48.517Z,67.80
2023-03-04T21:52:17.199Z,64.70
2023-03-04T21:54:44.677Z,70.78
2023-03-04T21:57:14.195Z,69.53
2023-03-04T21:59:41.682Z,64.28
2023-03-04T22:02:19.076Z,81.30
2023-03-04T22:04:47.305Z,66.97
2023-03-04T22:07:15.001Z,70.57
2023-03-04T22:09:42.535Z,65.43
2023-03-04T22:12:10.119Z,68.82
2023-03-04T22:14:37.537Z,75.18
2023-03-04T22:17:05.275Z,68.57
2023-03-04T22:19:33.764Z,73.32
2023-03-04T22:22:01.187Z,72.05
2023-03-04T22:24:28.840Z,74.72
2023-03-04T22:26:57.653Z,79.75
2023-03-04T22:29:25.154Z,88.53
2023-03-04T22:31:52.628Z,89.00
2023-03-04T22:34:20.088Z,81.72
2023-03-04T22:36:48.788Z,78.22
2023-03-04T22:39:19.401Z,78.20
2023-03-04T22:41:47.133Z,75.07
2023-03-04T22:44:14.597Z,74.40
2023-03-04T22:46:42.721Z,76.15
2023-03-04T22:49:13.019Z,78.70
2023-03-04T22:51:42.395Z,74.20
2023-03-04T22:54:17.680Z,78.07
2023-03-04T22:56:45.410Z,84.22
2023-03-04T22:59:13.374Z,80.38
2023-03-04T23:01:40.814Z,80.72
2023-03-04T23:04:08.164Z,71.57
2023-03-04T23:06:36.396Z,81.35
2023-03-04T23:09:04.298Z,75.63
2023-03-04T23:11:35.351Z,78.68
2023-03-04T23:14:06.658Z,75.68
2023-03-04T23:16:37.296Z,74.03
2023-03-04T23:19:06.268Z,81.53
2023-03-04T23:21:34.046Z,80.53
2023-03-04T23:24:03.421Z,93.07
2023-03-04T23:26:34.974Z,86.03
2023-03-04T23:29:03.945Z,89.00
2023-03-04T23:31:32.515Z,77.78
2023-03-04T23:34:01.475Z,86.63
2023-03-04T23:36:31.890Z,80.38
2023-03-04T23:39:00.448Z,78.15
2023-03-04T23:41:30.977Z,81.40
2023-03-04T23:43:59.966Z,86.15
2023-03-04T23:46:28.465Z,88.55
2023-03-04T23:48:56.666Z,87.80
2023-03-04T23:51:26.929Z,84.93
2023-03-04T23:53:55.016Z,86.90
2023-03-04T23:56:25.510Z,81.43
2023-03-04T23:58:53.357Z,84.90
